createdAt,value
2023-04-13T00:00:09.641Z,76.73
2023-04-13T00:02:55.229Z,77.33
2023-04-13T00:05:40.521Z,78.03
2023-04-13T00:08:25.627Z,77.46
2023-04-13T00:11:11.557Z,78.47
2023-04-13T00:13:57.174Z,78.27
2023-04-13T00:16:42.601Z,78.70
2023-04-13T00:19:28.243Z,79.01
2023-04-13T00:22:16.295Z,79.41
2023-04-13T00:25:01.710Z,79.34
2023-04-13T00:27:47.376Z,79.99
2023-04-13T00:30:32.725Z,80.37
2023-04-13T00:33:17.955Z,80.31
2023-04-13T00:36:03.478Z,80.05
2023-04-13T00:38:49.125Z,80.57
2023-04-13T00:41:34.178Z,82.25
2023-04-13T00:44:20.063Z,83.08
2023-04-13T00:47:06.505Z,84.11
2023-04-13T00:49:53.677Z,85.56
2023-04-13T00:52:40.742Z,86.96
2023-04-13T00:55:26.475Z,88.42
2023-04-13T00:58:12.616Z,88.26
2023-04-13T01:00:58.067Z,87.92
2023-04-13T01:03:43.287Z,87.13
2023-04-13T01:06:33.509Z,85.94
2023-04-13T01:09:34.848Z,85.50
2023-04-13T01:12:45.359Z,85.52
2023-04-13T01:15:35.277Z,84.27
2023-04-13T01:18:21.630Z,83.77
2023-04-13T01:21:13.231Z,84.35
2023-04-13T01:24:32.298Z,83.82
2023-04-13T01:27:23.214Z,84.25
2023-04-13T01:30:11.276Z,86.13
2023-04-13T01:32:58.093Z,85.53
2023-04-13T01:35:45.685Z,85.94
2023-04-13T01:38:34.588Z,87.08
2023-04-13T01:41:20.101Z,87.12
2023-04-13T01:44:05.763Z,87.18
2023-04-13T01:46:56.104Z,86.93
2023-04-13T01:50:12.078Z,86.91
2023-04-13T01:53:20.123Z,86.21
2023-04-13T01:56:06.402Z,85.89
2023-04-13T01:58:54.726Z,84.32
2023-04-13T02:01:40.498Z,84.04
2023-04-13T02:04:26.326Z,84.26
2023-04-13T02:07:11.759Z,84.78
2023-04-13T02:10:02.747Z,84.85
2023-04-13T02:12:48.527Z,85.08
2023-04-13T02:15:35.711Z,84.15
2023-04-13T02:18:21.485Z,83.98
2023-04-13T02:21:08.607Z,83.90
2023-04-13T02:23:53.958Z,83.83
2023-04-13T02:26:41.247Z,83.40
2023-04-13T02:29:26.585Z,83.17
2023-04-13T02:32:12.182Z,82.41
2023-04-13T02:34:57.503Z,83.54
2023-04-13T02:37:43.007Z,83.21
2023-04-13T02:40:31.651Z,82.76
2023-04-13T02:43:17.217Z,82.79
2023-04-13T02:46:02.540Z,83.38
2023-04-13T02:48:53.366Z,83.82
2023-04-13T02:51:38.447Z,83.24
2023-04-13T02:54:24.568Z,82.50
2023-04-13T02:57:10.237Z,82.76
2023-04-13T02:59:58.201Z,82.82
2023-04-13T03:02:48.251Z,82.88
2023-04-13T03:05:36.607Z,81.95
2023-04-13T03:08:23.305Z,81.83
2023-04-13T03:11:21.866Z,81.48
2023-04-13T03:14:12.827Z,80.62
2023-04-13T03:16:59.399Z,80.62
2023-04-13T03:19:52.896Z,80.21
2023-04-13T03:22:40.936Z,79.60
2023-04-13T03:25:26.773Z,78.72
2023-04-13T03:28:12.102Z,79.27
2023-04-13T03:31:01.433Z,79.19
2023-04-13T03:33:55.081Z,79.33
2023-04-13T03:36:40.781Z,78.86
2023-04-13T03:39:26.704Z,79.11
2023-04-13T03:42:12.029Z,77.88
2023-04-13T03:45:04.736Z,78.22
2023-04-13T03:47:50.138Z,77.71
2023-04-13T03:50:39.491Z,78.44
2023-04-13T03:53:27.090Z,78.36
2023-04-13T03:56:14.627Z,78.89
2023-04-13T03:59:00.290Z,77.48
2023-04-13T04:01:46.825Z,77.14
2023-04-13T04:04:32.324Z,78.10
2023-04-13T04:07:18.151Z,76.35
2023-04-13T04:10:04.235Z,76.34
2023-04-13T04:12:49.608Z,75.29
2023-04-13T04:15:35.365Z,76.06
2023-04-13T04:18:24.623Z,77.17
2023-04-13T04:21:10.563Z,76.98
2023-04-13T04:23:56.283Z,77.35
2023-04-13T04:26:41.869Z,76.25
2023-04-13T04:29:27.475Z,76.52
2023-04-13T04:32:14.357Z,76.63
2023-04-13T04:35:00.766Z,76.24
2023-04-13T04:37:46.445Z,76.51
2023-04-13T04:40:35.967Z,76.11
2023-04-13T04:43:23.776Z,75.60
2023-04-13T04:46:09.363Z,76.70
2023-04-13T04:49:00.419Z,77.48
2023-04-13T04:51:48.859Z,77.35
2023-04-13T04:54:34.642Z,77.71
2023-04-13T04:57:20.313Z,78.41
2023-04-13T05:00:07.426Z,76.71
2023-04-13T05:02:52.884Z,76.69
2023-04-13T05:05:38.449Z,76.46
2023-04-13T05:08:27.771Z,76.42
2023-04-13T05:11:13.548Z,76.48
2023-04-13T05:14:00.183Z,75.86
2023-04-13T05:16:46.150Z,74.60
2023-04-13T05:19:39.087Z,76.49
2023-04-13T05:22:49.346Z,76.55
2023-04-13T05:25:35.619Z,76.58
2023-04-13T05:28:26.298Z,76.97
2023-04-13T05:31:12.143Z,76.40
2023-04-13T05:34:01.772Z,76.76
2023-04-13T05:36:47.379Z,76.29
2023-04-13T05:39:33.430Z,75.97
2023-04-13T05:42:18.918Z,76.26
2023-04-13T05:45:05.704Z,75.60
2023-04-13T05:47:51.312Z,75.03
2023-04-13T05:50:38.187Z,74.17
2023-04-13T05:53:23.987Z,73.85
2023-04-13T05:56:12.683Z,73.32
2023-04-13T05:58:59.288Z,73.93
2023-04-13T06:01:47.046Z,72.53
2023-04-13T06:04:32.621Z,73.60
2023-04-13T06:07:18.454Z,73.60
2023-04-13T06:10:04.007Z,72.55
2023-04-13T06:12:49.334Z,72.53
2023-04-13T06:15:36.882Z,73.42
2023-04-13T06:18:22.102Z,73.72
2023-04-13T06:21:08.057Z,72.61
2023-04-13T06:23:53.638Z,74.17
2023-04-13T06:26:47.165Z,73.94
2023-04-13T06:29:33.256Z,72.27
2023-04-13T06:32:24.578Z,72.84
2023-04-13T06:35:09.987Z,71.22
2023-04-13T06:38:03.327Z,72.31
2023-04-13T06:41:02.879Z,72.80
2023-04-13T06:43:50.767Z,72.35
2023-04-13T06:46:52.243Z,73.23
2023-04-13T06:49:44.599Z,72.88
2023-04-13T06:52:30.645Z,71.63
2023-04-13T06:55:17.880Z,71.57
2023-04-13T06:58:03.620Z,71.48
2023-04-13T07:00:49.340Z,71.21
2023-04-13T07:03:35.183Z,70.75
2023-04-13T07:06:23.256Z,70.29
2023-04-13T07:09:10.055Z,70.77
2023-04-13T07:11:55.598Z,71.08
2023-04-13T07:14:41.295Z,71.10
2023-04-13T07:17:29.255Z,71.15
2023-04-13T07:20:14.890Z,70.13
2023-04-13T07:23:00.282Z,68.66
2023-04-13T07:25:46.071Z,67.95
2023-04-13T07:28:38.110Z,64.49
2023-04-13T07:31:23.975Z,67.13
2023-04-13T07:34:11.173Z,66.71
2023-04-13T07:37:01.551Z,65.67
2023-04-13T07:39:47.305Z,65.67
2023-04-13T07:42:32.949Z,66.29
2023-04-13T07:45:18.453Z,67.39
2023-04-13T07:48:04.930Z,65.53
2023-04-13T07:50:51.700Z,65.55
2023-04-13T07:53:40.360Z,66.80
2023-04-13T07:56:25.820Z,68.17
2023-04-13T07:59:12.471Z,68.62
2023-04-13T08:01:59.171Z,67.77
2023-04-13T08:04:46.953Z,68.07
2023-04-13T08:07:38.317Z,66.93
2023-04-13T08:10:25.549Z,66.96
2023-04-13T08:13:14.672Z,64.34
2023-04-13T08:16:01.988Z,67.03
2023-04-13T08:18:50.261Z,64.47
2023-04-13T08:21:37.537Z,65.52
2023-04-13T08:24:24.074Z,63.60
2023-04-13T08:27:09.501Z,64.66
2023-04-13T08:29:59.334Z,61.04
2023-04-13T08:32:44.778Z,62.05
2023-04-13T08:35:31.398Z,61.87
2023-04-13T08:38:19.263Z,59.94
2023-04-13T08:41:09.796Z,58.99
2023-04-13T08:43:56.735Z,59.14
2023-04-13T08:46:46.379Z,58.19
2023-04-13T08:49:36.517Z,58.02
2023-04-13T08:52:30.810Z,58.03
2023-04-13T08:55:16.998Z,61.12
2023-04-13T08:58:05.407Z,61.22
2023-04-13T09:00:50.862Z,62.30
2023-04-13T09:03:48.822Z,62.17
2023-04-13T09:06:37.511Z,61.09
2023-04-13T09:09:26.704Z,59.62
2023-04-13T09:12:12.125Z,59.87
2023-04-13T09:14:58.160Z,59.44
2023-04-13T09:17:46.815Z,58.65
2023-04-13T09:20:33.654Z,59.26
2023-04-13T09:23:18.822Z,59.76
2023-04-13T09:26:10.081Z,57.65
2023-04-13T09:28:56.848Z,58.90
2023-04-13T09:31:45.062Z,58.36
2023-04-13T09:34:31.081Z,55.89
2023-04-13T09:37:16.363Z,57.46
2023-04-13T09:40:17.722Z,56.98
2023-04-13T09:43:05.213Z,57.02
2023-04-13T09:45:50.674Z,58.02
2023-04-13T09:48:35.899Z,58.10
2023-04-13T09:51:21.281Z,56.61
2023-04-13T09:54:07.129Z,57.93
2023-04-13T09:56:52.145Z,57.48
2023-04-13T09:59:38.012Z,57.78
2023-04-13T10:02:23.632Z,60.36
2023-04-13T10:05:10.074Z,57.94
2023-04-13T10:07:55.425Z,57.43
2023-04-13T10:10:41.149Z,58.49
2023-04-13T10:13:34.143Z,58.83
2023-04-13T10:16:38.457Z,56.91
2023-04-13T10:19:27.943Z,56.35
2023-04-13T10:22:14.733Z,56.43
2023-04-13T10:24:59.916Z,57.04
2023-04-13T10:27:56.536Z,57.55
2023-04-13T10:30:51.757Z,57.63
2023-04-13T10:33:50.940Z,56.68
2023-04-13T10:36:44.271Z,57.69
2023-04-13T10:39:38.998Z,56.09
2023-04-13T10:42:24.225Z,56.70
2023-04-13T10:45:28.929Z,57.17
2023-04-13T10:48:20.331Z,57.00
2023-04-13T10:51:05.935Z,57.01
2023-04-13T10:53:51.469Z,55.14
2023-04-13T10:56:37.422Z,58.12
2023-04-13T10:59:22.752Z,56.95
2023-04-13T11:02:12.781Z,57.63
2023-04-13T11:04:59.294Z,57.87
2023-04-13T11:07:45.085Z,56.43
2023-04-13T11:10:30.394Z,56.30
2023-04-13T11:13:15.576Z,55.80
2023-04-13T11:16:05.406Z,57.88
2023-04-13T11:19:04.083Z,56.94
2023-04-13T11:21:55.843Z,57.68
2023-04-13T11:24:41.408Z,58.90
2023-04-13T11:27:26.635Z,58.28
2023-04-13T11:30:12.260Z,59.00
2023-04-13T11:32:59.867Z,56.43
2023-04-13T11:35:49.775Z,57.05
2023-04-13T11:38:35.627Z,57.17
2023-04-13T11:41:21.240Z,57.94
2023-04-13T11:44:06.563Z,57.56
2023-04-13T11:46:52.967Z,57.37
2023-04-13T11:49:38.247Z,57.99
2023-04-13T11:52:24.544Z,58.10
2023-04-13T11:55:21.618Z,58.09
2023-04-13T11:58:10.876Z,57.28
2023-04-13T12:00:59.875Z,56.54
2023-04-13T12:04:01.600Z,56.71
2023-04-13T12:06:54.172Z,56.90
2023-04-13T12:12:51.142Z,57.96
2023-04-13T12:15:43.972Z,56.29
2023-04-13T12:18:57.317Z,55.74
2023-04-13T12:22:01.416Z,54.95
2023-04-13T12:24:51.027Z,54.95
2023-04-13T12:27:40.739Z,55.21
2023-04-13T12:30:25.706Z,55.98
2023-04-13T12:33:11.628Z,55.04
2023-04-13T12:35:56.670Z,53.39
2023-04-13T12:38:42.018Z,53.89
2023-04-13T12:41:29.421Z,50.63
2023-04-13T12:44:14.679Z,51.35
2023-04-13T12:47:00.354Z,52.09
2023-04-13T12:49:46.103Z,51.75
2023-04-13T12:52:31.375Z,49.35
2023-04-13T12:55:16.909Z,51.78
2023-04-13T12:58:02.192Z,53.25
2023-04-13T13:00:48.423Z,51.80
2023-04-13T13:03:34.178Z,51.27
2023-04-13T13:06:19.916Z,49.90
2023-04-13T13:09:05.266Z,50.40
2023-04-13T13:11:51.079Z,50.98
2023-04-13T13:14:36.577Z,49.92
2023-04-13T13:17:21.951Z,50.39
2023-04-13T13:20:11.552Z,50.75
2023-04-13T13:22:57.262Z,51.28
2023-04-13T13:25:52.508Z,52.23
2023-04-13T13:28:48.144Z,52.32
2023-04-13T13:31:35.597Z,50.69
2023-04-13T13:34:21.285Z,50.12
2023-04-13T13:37:07.136Z,46.55
2023-04-13T13:39:52.998Z,48.87
2023-04-13T13:42:50.726Z,49.70
2023-04-13T13:45:37.220Z,50.40
2023-04-13T13:48:23.567Z,56.07
2023-04-13T13:51:20.376Z,59.14
2023-04-13T13:54:05.967Z,61.06
2023-04-13T13:56:51.365Z,61.72
2023-04-13T13:59:36.960Z,63.12
2023-04-13T14:02:22.589Z,64.31
2023-04-13T14:05:08.628Z,66.54
2023-04-13T14:07:53.946Z,68.59
2023-04-13T14:10:39.893Z,69.91
2023-04-13T14:13:25.601Z,69.89
2023-04-13T14:16:11.062Z,70.13
2023-04-13T14:18:56.801Z,69.33
2023-04-13T14:21:42.035Z,69.61
2023-04-13T14:24:27.700Z,67.83
2023-04-13T14:27:13.379Z,67.72
2023-04-13T14:29:59.223Z,68.12
2023-04-13T14:32:44.639Z,68.67
2023-04-13T14:35:30.074Z,68.36
2023-04-13T14:38:16.050Z,70.26
2023-04-13T14:41:01.859Z,68.98
2023-04-13T14:43:47.114Z,68.87
2023-04-13T14:46:33.820Z,69.20
2023-04-13T14:49:19.966Z,68.11
2023-04-13T14:52:09.163Z,67.80
2023-04-13T14:54:58.140Z,67.84
2023-04-13T14:57:44.030Z,66.65
2023-04-13T15:00:29.755Z,68.62
2023-04-13T15:03:15.583Z,69.71
2023-04-13T15:06:04.821Z,69.82
2023-04-13T15:08:51.230Z,70.96
2023-04-13T15:11:36.909Z,69.42
2023-04-13T15:14:22.120Z,66.74
2023-04-13T15:17:07.613Z,67.75
2023-04-13T15:19:53.273Z,68.21
2023-04-13T15:22:38.743Z,67.21
2023-04-13T15:25:25.171Z,64.54
2023-04-13T15:28:10.948Z,61.62
2023-04-13T15:30:56.564Z,60.45
2023-04-13T15:33:42.280Z,60.62
2023-04-13T15:36:28.332Z,60.61
2023-04-13T15:39:15.020Z,61.99
2023-04-13T15:42:00.522Z,60.85
2023-04-13T15:44:46.101Z,59.54
2023-04-13T15:47:32.612Z,60.31
2023-04-13T15:50:18.752Z,61.65
2023-04-13T15:53:04.341Z,60.81
2023-04-13T15:55:50.837Z,60.82
2023-04-13T15:58:35.861Z,61.93
2023-04-13T16:01:21.205Z,62.39
2023-04-13T16:04:06.438Z,62.23
2023-04-13T16:07:05.008Z,62.18
2023-04-13T16:09:57.133Z,62.46
2023-04-13T16:12:42.516Z,61.99
2023-04-13T16:15:28.256Z,63.53
2023-04-13T16:18:13.313Z,61.72
2023-04-13T16:21:00.381Z,60.67
2023-04-13T16:23:45.939Z,62.31
2023-04-13T16:26:31.615Z,63.30
2023-04-13T16:29:16.745Z,64.96
2023-04-13T16:32:02.193Z,64.62
2023-04-13T16:34:47.480Z,64.99
2023-04-13T16:37:33.103Z,66.54
2023-04-13T16:40:18.818Z,67.54
2023-04-13T16:43:04.755Z,67.35
2023-04-13T16:45:50.208Z,67.98
2023-04-13T16:48:36.162Z,67.76
2023-04-13T16:51:21.746Z,67.44
2023-04-13T16:54:07.499Z,68.28
2023-04-13T16:56:53.100Z,68.34
2023-04-13T16:59:38.465Z,68.30
2023-04-13T17:02:31.125Z,66.75
2023-04-13T17:05:17.423Z,66.38
2023-04-13T17:08:04.374Z,66.82
2023-04-13T17:10:50.642Z,67.11
2023-04-13T17:13:36.693Z,67.10
2023-04-13T17:16:22.700Z,67.40
2023-04-13T17:19:08.359Z,66.69
2023-04-13T17:21:53.910Z,65.87
2023-04-13T17:24:39.285Z,66.48
2023-04-13T17:27:25.008Z,66.04
2023-04-13T17:30:10.835Z,66.51
2023-04-13T17:32:56.289Z,65.42
2023-04-13T17:35:41.903Z,64.11
2023-04-13T17:38:27.371Z,64.48
2023-04-13T17:41:13.034Z,64.08
2023-04-13T17:44:02.155Z,64.21
2023-04-13T17:46:47.377Z,63.51
2023-04-13T17:49:34.083Z,62.89
2023-04-13T17:52:19.395Z,62.26
2023-04-13T17:55:05.579Z,62.04
2023-04-13T17:57:51.568Z,61.63
2023-04-13T18:00:37.908Z,61.57
2023-04-13T18:03:23.526Z,61.26
2023-04-13T18:06:09.131Z,61.47
2023-04-13T18:08:54.452Z,62.25
2023-04-13T18:11:40.159Z,63.24
2023-04-13T18:14:25.361Z,63.78
2023-04-13T18:17:10.763Z,63.88
2023-04-13T18:19:56.183Z,64.47
2023-04-13T18:22:41.865Z,63.94
2023-04-13T18:25:27.256Z,64.30
2023-04-13T18:28:12.811Z,64.48
2023-04-13T18:31:01.645Z,64.86
2023-04-13T18:33:47.004Z,65.17
2023-04-13T18:36:32.245Z,65.50
2023-04-13T18:39:18.851Z,65.84
2023-04-13T18:42:04.296Z,65.65
2023-04-13T18:44:49.606Z,65.93
2023-04-13T18:47:36.937Z,65.84
2023-04-13T18:50:23.034Z,65.93
2023-04-13T18:53:08.315Z,65.85
2023-04-13T18:55:53.855Z,67.05
2023-04-13T18:58:39.719Z,67.52
2023-04-13T19:01:30.589Z,67.64
2023-04-13T19:04:17.127Z,67.32
2023-04-13T19:07:04.814Z,67.05
2023-04-13T19:09:51.387Z,66.83
2023-04-13T19:12:40.482Z,67.75
2023-04-13T19:15:25.737Z,67.86
2023-04-13T19:18:11.024Z,68.40
2023-04-13T19:20:56.175Z,68.72
2023-04-13T19:23:42.188Z,68.38
2023-04-13T19:26:28.089Z,68.84
2023-04-13T19:29:13.850Z,68.21
2023-04-13T19:31:59.507Z,68.05
2023-04-13T19:34:44.936Z,68.22
2023-04-13T19:37:31.536Z,68.76
2023-04-13T19:40:16.967Z,69.64
2023-04-13T19:43:02.566Z,69.83
2023-04-13T19:45:48.450Z,69.27
2023-04-13T19:48:34.162Z,69.22
2023-04-13T19:51:19.601Z,69.56
2023-04-13T19:54:05.965Z,69.63
2023-04-13T19:56:51.370Z,69.75
2023-04-13T19:59:37.079Z,69.69
2023-04-13T20:02:23.304Z,70.38
2023-04-13T20:05:08.687Z,70.44
2023-04-13T20:07:54.317Z,71.13
2023-04-13T20:10:39.900Z,71.38
2023-04-13T20:13:25.626Z,70.19
2023-04-13T20:16:11.136Z,70.25
2023-04-13T20:18:56.534Z,69.50
2023-04-13T20:21:42.355Z,69.10
2023-04-13T20:24:28.106Z,69.01
2023-04-13T20:27:13.078Z,68.27
2023-04-13T20:29:58.850Z,68.50
2023-04-13T20:32:44.487Z,68.58
2023-04-13T20:35:30.045Z,69.01
2023-04-13T20:38:15.313Z,68.95
2023-04-13T20:41:01.112Z,69.37
2023-04-13T20:43:46.834Z,69.73
2023-04-13T20:46:32.123Z,70.25
2023-04-13T20:49:17.422Z,70.12
2023-04-13T20:52:02.620Z,70.29
2023-04-13T20:54:48.392Z,70.58
2023-04-13T20:57:33.977Z,70.11
2023-04-13T21:00:20.702Z,69.86
2023-04-13T21:03:06.285Z,69.64
2023-04-13T21:05:51.817Z,71.27
2023-04-13T21:08:37.377Z,71.04
2023-04-13T21:11:23.549Z,70.01
2023-04-13T21:14:08.759Z,70.57
2023-04-13T21:16:54.772Z,71.50
2023-04-13T21:19:40.619Z,71.65
2023-04-13T21:22:26.119Z,71.58
2023-04-13T21:25:11.690Z,71.95
2023-04-13T21:27:57.008Z,71.14
2023-04-13T21:30:42.437Z,71.51
2023-04-13T21:33:27.878Z,71.54
2023-04-13T21:39:02.785Z,72.86
2023-04-13T21:41:48.407Z,76.56
2023-04-13T21:44:33.309Z,75.72
2023-04-13T21:47:18.561Z,74.23
2023-04-13T21:50:03.920Z,73.83
2023-04-13T21:52:49.227Z,74.14
2023-04-13T21:55:34.706Z,74.55
2023-04-13T21:58:20.068Z,74.14
2023-04-13T22:01:06.029Z,73.74
2023-04-13T22:03:51.679Z,74.22
2023-04-13T22:06:37.172Z,73.83
2023-04-13T22:09:22.902Z,73.90
2023-04-13T22:12:08.277Z,73.32
2023-04-13T22:14:53.921Z,73.22
2023-04-13T22:17:39.373Z,73.13
2023-04-13T22:20:24.934Z,73.35
2023-04-13T22:23:10.730Z,72.84
2023-04-13T22:25:57.027Z,73.25
2023-04-13T22:28:42.498Z,73.05
2023-04-13T22:31:27.777Z,72.46
2023-04-13T22:34:13.273Z,72.12
2023-04-13T22:36:58.552Z,72.00
2023-04-13T22:39:43.937Z,72.78
2023-04-13T22:42:29.431Z,73.00
2023-04-13T22:45:14.643Z,72.65
2023-04-13T22:50:45.299Z,72.88
2023-04-13T22:53:31.295Z,72.71
2023-04-13T22:56:16.853Z,72.38
2023-04-13T22:59:02.542Z,72.11
2023-04-13T23:01:47.964Z,71.91
2023-04-13T23:04:33.836Z,72.13
2023-04-13T23:07:18.944Z,71.45
2023-04-13T23:10:07.675Z,71.88
2023-04-13T23:12:52.893Z,72.08
2023-04-13T23:15:38.533Z,73.04
2023-04-13T23:18:23.815Z,72.92
2023-04-13T23:21:10.467Z,72.96
2023-04-13T23:23:55.548Z,73.51
2023-04-13T23:26:40.815Z,73.02
2023-04-13T23:29:25.937Z,72.63
2023-04-13T23:32:12.120Z,72.67
2023-04-13T23:34:57.897Z,72.91
2023-04-13T23:37:43.388Z,72.89
2023-04-13T23:40:28.498Z,72.82
2023-04-13T23:43:14.136Z,72.40
2023-04-13T23:45:59.478Z,72.08
2023-04-13T23:48:44.750Z,72.26
2023-04-13T23:51:30.123Z,72.18
2023-04-13T23:54:15.803Z,72.96
2023-04-13T23:57:01.432Z,73.04
2023-04-13T23:59:46.878Z,73.19
